Waterloo, Ohio
Current Conditions -  °F | °C
As of 3:55 AM on Friday 28 Nov 2014 (Local Time) from KDWU Reporting Station
Overcast Overcast  
Wind Chill: 24°   Ceiling: 4100
Heat Index: 30°   Visibility: 10mi
Dew Point: 18°   Wind: 6mph
Humidity: 60%   Direction: 330°NNW
Pressure: 30.37"   Gusts: NA
Location:  38.7°N, 82.47°W
Report Text: KDWU 280855Z AUTO 33005KT 10SM OVC041 M01/M08 A3037 RMK AO1 52003
Loading
Personal Weather Stations






























Interactive Weather Map New forecast layout! Learn more

10-Day Weather Forecast

Advertisements
Track Severe Weather on mobile